createdAt,value
2023-04-15T00:00:35.687Z,1732.2307
2023-04-15T00:01:36.756Z,1733.3077
2023-04-15T00:02:37.890Z,1724.4615
2023-04-15T00:03:39.123Z,1722.3077
2023-04-15T00:04:39.857Z,1723.3077
2023-04-15T00:05:40.935Z,1727.2307
2023-04-15T00:06:41.934Z,1746.0769
2023-04-15T00:07:43.720Z,1735.6154
2023-04-15T00:08:43.875Z,1728.2307
2023-04-15T00:09:44.952Z,1725.4615
2023-04-15T00:10:46.017Z,1724.9231
2023-04-15T00:11:47.029Z,1727.9231
2023-04-15T00:12:48.059Z,1729.1538
2023-04-15T00:13:49.104Z,1727.0769
2023-04-15T00:14:50.185Z,1722.9231
2023-04-15T00:15:51.240Z,1723.0000
2023-04-15T00:16:52.340Z,1723.8462
2023-04-15T00:17:53.286Z,1725.3077
2023-04-15T00:18:54.343Z,1728.7693
2023-04-15T00:19:55.358Z,1726.8462
2023-04-15T00:20:56.464Z,1721.5385
2023-04-15T00:21:57.453Z,1719.3077
2023-04-15T00:22:58.506Z,1727.0000
2023-04-15T00:23:59.533Z,1730.1538
2023-04-15T00:25:00.577Z,1728.7693
2023-04-15T00:26:01.667Z,1731.4615
2023-04-15T00:27:02.698Z,1735.0769
2023-04-15T00:28:03.700Z,1734.0000
2023-04-15T00:29:04.749Z,1731.4615
2023-04-15T00:30:05.783Z,1731.0769
2023-04-15T00:31:06.884Z,1730.0000
2023-04-15T00:32:07.900Z,1729.6923
2023-04-15T00:33:08.923Z,1730.5385
2023-04-15T00:34:09.988Z,1728.7693
2023-04-15T00:35:11.048Z,1730.2307
2023-04-15T00:36:12.071Z,1734.4615
2023-04-15T00:37:13.081Z,1733.6923
2023-04-15T00:38:14.157Z,1733.9231
2023-04-15T00:39:15.239Z,1734.6154
2023-04-15T00:40:16.230Z,1730.6923
2023-04-15T00:41:17.326Z,1730.1538
2023-04-15T00:42:18.364Z,1728.3077
2023-04-15T00:43:19.365Z,1730.0000
2023-04-15T00:44:20.399Z,1728.8462
2023-04-15T00:45:21.434Z,1728.0000
2023-04-15T00:46:22.542Z,1724.0769
2023-04-15T00:47:23.621Z,1726.7693
2023-04-15T00:48:24.568Z,1724.3846
2023-04-15T00:49:25.624Z,1719.6923
2023-04-15T00:50:26.693Z,1714.4615
2023-04-15T00:51:27.708Z,1718.1538
2023-04-15T00:52:28.825Z,1714.7693
2023-04-15T00:53:29.834Z,1717.9231
2023-04-15T00:54:30.843Z,1719.8462
2023-04-15T00:55:31.925Z,1717.7693
2023-04-15T00:56:32.987Z,1722.2307
2023-04-15T00:57:34.111Z,1721.3846
2023-04-15T00:58:35.143Z,1722.4615
2023-04-15T00:59:36.195Z,1723.3846
2023-04-15T01:00:37.230Z,1723.0769
2023-04-15T01:01:38.322Z,1721.9231
2023-04-15T01:02:39.598Z,1722.6154
2023-04-15T01:03:40.467Z,1721.4615
2023-04-15T01:04:41.393Z,1725.0769
2023-04-15T01:05:42.442Z,1724.4615
2023-04-15T01:06:43.534Z,1723.8462
2023-04-15T01:07:44.596Z,1730.3846
2023-04-15T01:08:45.626Z,1730.2307
2023-04-15T01:09:46.594Z,1730.2307
2023-04-15T01:10:47.666Z,1723.2307
2023-04-15T01:11:48.724Z,1719.6154
2023-04-15T01:12:49.733Z,1735.8462
2023-04-15T01:13:50.828Z,1731.9231
2023-04-15T01:14:51.833Z,1731.6154
2023-04-15T01:15:52.845Z,1726.7693
2023-04-15T01:16:53.860Z,1734.8462
2023-04-15T01:17:55.029Z,1728.3077
2023-04-15T01:18:55.947Z,1730.1538
2023-04-15T01:19:57.015Z,1733.8462
2023-04-15T01:20:58.031Z,1735.9231
2023-04-15T01:21:59.072Z,1736.0769
2023-04-15T01:23:00.263Z,1735.6154
2023-04-15T01:24:01.170Z,1732.4615
2023-04-15T01:25:02.202Z,1738.0000
2023-04-15T01:26:03.272Z,1737.3846
2023-04-15T01:27:04.278Z,1735.6923
2023-04-15T01:28:05.383Z,1732.6923
2023-04-15T01:29:06.344Z,1732.5385
2023-04-15T01:30:07.453Z,1731.8462
2023-04-15T01:31:08.518Z,1729.0000
2023-04-15T01:32:09.472Z,1730.6923
2023-04-15T01:33:10.531Z,1730.1538
2023-04-15T01:34:11.555Z,1726.3846
2023-04-15T01:35:12.608Z,1727.9231
2023-04-15T01:36:13.613Z,1730.6923
2023-04-15T01:37:14.650Z,1730.3077
2023-04-15T01:38:15.730Z,1726.1538
2023-04-15T01:39:16.829Z,1723.9231
2023-04-15T01:40:17.778Z,1718.8462
2023-04-15T01:41:18.833Z,1721.9231
2023-04-15T01:42:19.850Z,1723.4615
2023-04-15T01:43:20.926Z,1722.8462
2023-04-15T01:44:21.932Z,1726.3077
2023-04-15T01:45:22.951Z,1731.3846
2023-04-15T01:46:24.021Z,1733.9231
2023-04-15T01:47:25.072Z,1699.3077
2023-04-15T01:48:26.145Z,1591.4615
2023-04-15T01:49:27.127Z,1822.7693
2023-04-15T01:50:28.090Z,1739.4615
2023-04-15T01:51:29.144Z,1742.9231
2023-04-15T01:52:30.171Z,1771.1538
2023-04-15T01:53:31.226Z,1762.6154
2023-04-15T01:54:32.262Z,1692.2307
2023-04-15T01:55:33.318Z,1766.2307
2023-04-15T01:56:34.351Z,1779.7693
2023-04-15T01:57:35.372Z,1771.0000
2023-04-15T01:58:36.472Z,1763.4615
2023-04-15T01:59:37.473Z,1756.2307
2023-04-15T02:00:38.539Z,1747.5385
2023-04-15T02:01:39.573Z,1741.0000
2023-04-15T02:02:40.746Z,1740.0000
2023-04-15T02:03:41.781Z,1738.4615
2023-04-15T02:04:42.685Z,1739.3846
2023-04-15T02:05:43.702Z,1738.7693
2023-04-15T02:06:44.731Z,1734.6923
2023-04-15T02:07:45.769Z,1735.8462
2023-04-15T02:08:46.869Z,1736.9231
2023-04-15T02:09:47.876Z,1739.9231
2023-04-15T02:10:48.915Z,1744.6923
2023-04-15T02:11:49.977Z,1744.0769
2023-04-15T02:12:51.014Z,1738.3846
2023-04-15T02:13:52.096Z,1733.9231
2023-04-15T02:14:53.102Z,1733.9231
2023-04-15T02:15:54.140Z,1735.4615
2023-04-15T02:16:55.242Z,1731.0000
2023-04-15T02:17:56.228Z,1737.0000
2023-04-15T02:18:57.283Z,1748.5385
2023-04-15T02:19:58.280Z,1746.0000
2023-04-15T02:20:59.393Z,1734.0769
2023-04-15T02:22:00.372Z,1734.8462
2023-04-15T02:23:01.424Z,1740.0000
2023-04-15T02:24:02.500Z,1736.7693
2023-04-15T02:25:03.531Z,1733.5385
2023-04-15T02:26:04.539Z,1739.0000
2023-04-15T02:27:05.556Z,1725.2307
2023-04-15T02:28:06.622Z,1711.0769
2023-04-15T02:29:07.661Z,1743.0000
2023-04-15T02:30:08.683Z,1735.7693
2023-04-15T02:31:09.775Z,1735.0000
2023-04-15T02:32:10.914Z,1728.7693
2023-04-15T02:33:11.838Z,1720.5385
2023-04-15T02:34:12.898Z,1719.2307
2023-04-15T02:35:13.996Z,1717.8462
2023-04-15T02:36:14.961Z,1715.8462
2023-04-15T02:37:16.017Z,1720.0769
2023-04-15T02:38:17.089Z,1725.4615
2023-04-15T02:39:18.085Z,1732.6923
2023-04-15T02:40:19.239Z,1733.3077
2023-04-15T02:41:20.321Z,1721.3846
2023-04-15T02:42:21.314Z,1732.2307
2023-04-15T02:43:22.356Z,1732.9231
2023-04-15T02:44:23.378Z,1732.7693
2023-04-15T02:45:24.505Z,1739.8462
2023-04-15T02:46:25.588Z,1747.9231
2023-04-15T02:47:26.593Z,1746.4615
2023-04-15T02:48:27.557Z,1754.0769
2023-04-15T02:49:28.752Z,1757.6923
2023-04-15T02:50:30.071Z,1765.3077
2023-04-15T02:51:30.870Z,1765.2307
2023-04-15T02:52:31.754Z,1771.3846
2023-04-15T02:53:32.831Z,1772.8462
2023-04-15T02:54:33.840Z,1772.6154
2023-04-15T02:55:34.916Z,1774.8462
2023-04-15T02:56:35.912Z,1774.1538
2023-04-15T02:57:36.989Z,1773.2307
2023-04-15T02:58:37.995Z,1773.4615
2023-04-15T02:59:39.037Z,1767.5385
2023-04-15T03:00:40.151Z,1767.2307
2023-04-15T03:01:41.088Z,1767.2307
2023-04-15T03:02:42.461Z,1766.7693
2023-04-15T03:03:43.380Z,1767.8462
2023-04-15T03:04:44.350Z,1763.7693
2023-04-15T03:05:45.410Z,1760.0769
2023-04-15T03:06:46.369Z,1756.5385
2023-04-15T03:07:47.424Z,1767.6923
2023-04-15T03:08:48.549Z,1769.6923
2023-04-15T03:09:49.515Z,1758.9231
2023-04-15T03:10:50.572Z,1762.0769
2023-04-15T03:11:51.573Z,1767.8462
2023-04-15T03:12:52.619Z,1763.8462
2023-04-15T03:13:53.689Z,1768.0769
2023-04-15T03:14:54.718Z,1768.1538
2023-04-15T03:15:55.887Z,1749.0769
2023-04-15T03:16:56.830Z,1766.9231
2023-04-15T03:17:57.930Z,1775.6154
2023-04-15T03:18:59.020Z,1747.0769
2023-04-15T03:19:59.964Z,1761.8462
2023-04-15T03:21:01.027Z,1791.6154
2023-04-15T03:22:02.016Z,1768.7693
2023-04-15T03:23:03.058Z,1745.6923
2023-04-15T03:24:04.200Z,1791.2307
2023-04-15T03:25:05.145Z,1778.0769
2023-04-15T03:26:06.238Z,1775.7693
2023-04-15T03:27:07.294Z,1771.4615
2023-04-15T03:28:08.276Z,1763.9231
2023-04-15T03:29:09.318Z,1767.3077
2023-04-15T03:30:10.334Z,1766.4615
2023-04-15T03:31:11.458Z,1762.2307
2023-04-15T03:32:12.508Z,1771.4615
2023-04-15T03:33:13.400Z,1776.1538
2023-04-15T03:34:14.441Z,1779.0769
2023-04-15T03:35:15.491Z,1773.0000
2023-04-15T03:36:16.569Z,1780.5385
2023-04-15T03:37:17.574Z,1773.9231
2023-04-15T03:38:18.597Z,1770.7693
2023-04-15T03:39:19.651Z,1771.6923
2023-04-15T03:40:20.685Z,1775.7693
2023-04-15T03:41:21.756Z,1769.8462
2023-04-15T03:42:22.766Z,1762.5385
2023-04-15T03:43:23.778Z,1764.2307
2023-04-15T03:44:24.854Z,1783.3077
2023-04-15T03:45:25.855Z,1765.4615
2023-04-15T03:46:26.962Z,1766.6923
2023-04-15T03:47:27.971Z,1778.2307
2023-04-15T03:48:29.005Z,1780.8462
2023-04-15T03:49:30.025Z,1786.5385
2023-04-15T03:50:31.054Z,1774.9231
2023-04-15T03:51:32.126Z,1758.0000
2023-04-15T03:52:33.151Z,1759.3846
2023-04-15T03:53:34.187Z,1779.6154
2023-04-15T03:54:35.238Z,1760.9231
2023-04-15T03:55:36.297Z,1751.3077
2023-04-15T03:56:37.379Z,1772.2307
2023-04-15T03:57:38.390Z,1775.0000
2023-04-15T03:58:39.433Z,1775.0000
2023-04-15T03:59:40.476Z,1733.8462
2023-04-15T04:00:41.575Z,1776.2307
2023-04-15T04:01:42.688Z,1782.8462
2023-04-15T04:02:43.726Z,1769.0000
2023-04-15T04:03:44.813Z,1768.9231
2023-04-15T04:04:45.714Z,1771.6154
2023-04-15T04:05:46.754Z,1766.0769
2023-04-15T04:06:47.828Z,1753.9231
2023-04-15T04:07:48.821Z,1774.7693
2023-04-15T04:08:49.873Z,1753.6923
2023-04-15T04:09:50.934Z,1750.6154
2023-04-15T04:10:51.953Z,1751.4615
2023-04-15T04:11:53.033Z,1745.8462
2023-04-15T04:12:54.039Z,1754.0000
2023-04-15T04:13:55.133Z,1755.0000
2023-04-15T04:14:56.170Z,1749.0000
2023-04-15T04:15:57.334Z,1745.3077
2023-04-15T04:16:58.335Z,1747.3846
2023-04-15T04:17:59.326Z,1749.0000
2023-04-15T04:19:00.612Z,1748.8462
2023-04-15T04:20:01.381Z,1745.3846
2023-04-15T04:21:02.390Z,1738.6154
2023-04-15T04:22:03.516Z,1748.9231
2023-04-15T04:23:04.467Z,1749.8462
2023-04-15T04:24:05.672Z,1751.0000
2023-04-15T04:25:06.705Z,1761.5385
2023-04-15T04:26:07.772Z,1766.0769
2023-04-15T04:27:08.829Z,1766.3077
2023-04-15T04:28:09.837Z,1763.5385
2023-04-15T04:29:10.869Z,1759.1538
2023-04-15T04:30:11.933Z,1763.1538
2023-04-15T04:31:13.054Z,1766.2307
2023-04-15T04:32:14.123Z,1767.6154
2023-04-15T04:33:15.075Z,1762.1538
2023-04-15T04:34:16.074Z,1759.3077
2023-04-15T04:35:17.153Z,1758.4615
2023-04-15T04:36:18.375Z,1768.5385
2023-04-15T04:37:19.301Z,1768.6154
2023-04-15T04:38:20.281Z,1769.6154
2023-04-15T04:39:21.389Z,1742.6154
2023-04-15T04:40:22.371Z,1716.3077
2023-04-15T04:41:23.374Z,1778.4615
2023-04-15T04:42:24.545Z,1773.3077
2023-04-15T04:43:25.487Z,1773.6923
2023-04-15T04:44:26.649Z,1767.4615
2023-04-15T04:45:27.557Z,1759.1538
2023-04-15T04:46:28.634Z,1766.3077
2023-04-15T04:47:29.782Z,1760.3846
2023-04-15T04:48:30.705Z,1769.9231
2023-04-15T04:49:31.722Z,1781.7693
2023-04-15T04:50:32.771Z,1787.9231
2023-04-15T04:51:33.828Z,1789.3077
2023-04-15T04:52:34.975Z,1783.2307
2023-04-15T04:53:35.931Z,1783.6154
2023-04-15T04:54:36.972Z,1783.8462
2023-04-15T04:55:38.028Z,1790.5385
2023-04-15T04:56:39.070Z,1785.3077
2023-04-15T04:57:40.168Z,1779.4615
2023-04-15T04:58:41.108Z,1779.0000
2023-04-15T04:59:42.209Z,1780.8462
2023-04-15T05:00:43.199Z,1761.3077
2023-04-15T05:01:44.474Z,1778.9231
2023-04-15T05:02:45.515Z,1779.9231
2023-04-15T05:03:46.422Z,1775.2307
2023-04-15T05:04:47.365Z,1773.6154
2023-04-15T05:05:48.508Z,1778.0000
2023-04-15T05:06:49.533Z,1780.6154
2023-04-15T05:07:50.547Z,1734.4615
2023-04-15T05:08:51.537Z,1790.8462
2023-04-15T05:09:52.663Z,1793.1538
2023-04-15T05:10:53.616Z,1788.0769
2023-04-15T05:11:54.723Z,1776.8462
2023-04-15T05:12:55.805Z,1772.4615
2023-04-15T05:13:56.794Z,1773.3077
2023-04-15T05:14:57.829Z,1770.6154
2023-04-15T05:15:58.924Z,1776.0769
2023-04-15T05:17:00.454Z,1780.5385
2023-04-15T05:18:00.934Z,1780.1538
2023-04-15T05:19:02.179Z,1760.2307
2023-04-15T05:20:02.967Z,1755.9231
2023-04-15T05:21:04.035Z,1770.1538
2023-04-15T05:22:05.059Z,1766.5385
2023-04-15T05:23:06.159Z,1777.2307
2023-04-15T05:24:07.137Z,1788.9231
2023-04-15T05:25:08.190Z,1778.0000
2023-04-15T05:26:09.240Z,1781.1538
2023-04-15T05:27:10.261Z,1769.4615
2023-04-15T05:28:11.372Z,1773.0000
2023-04-15T05:29:12.349Z,1771.5385
2023-04-15T05:30:13.842Z,1764.0000
2023-04-15T05:31:14.513Z,1769.0769
2023-04-15T05:32:15.491Z,1771.8462
2023-04-15T05:33:16.603Z,1782.0000
2023-04-15T05:34:17.562Z,1772.5385
2023-04-15T05:35:18.640Z,1774.9231
2023-04-15T05:36:19.659Z,1772.0769
2023-04-15T05:37:20.700Z,1776.3846
2023-04-15T05:38:21.774Z,1766.6154
2023-04-15T05:39:22.775Z,1774.2307
2023-04-15T05:40:23.840Z,1772.3846
2023-04-15T05:41:24.878Z,1773.6923
2023-04-15T05:42:25.916Z,1772.7693
2023-04-15T05:43:26.993Z,1774.1538
2023-04-15T05:44:28.054Z,1771.0769
2023-04-15T05:45:29.059Z,1765.4615
2023-04-15T05:46:30.144Z,1769.4615
2023-04-15T05:47:31.147Z,1767.5385
2023-04-15T05:48:32.192Z,1767.5385
2023-04-15T05:49:33.185Z,1768.2307
2023-04-15T05:50:34.260Z,1772.0769
2023-04-15T05:51:35.297Z,1773.5385
2023-04-15T05:52:36.323Z,1771.0769
2023-04-15T05:53:37.452Z,1766.0000
2023-04-15T05:54:38.971Z,1773.0000
2023-04-15T05:55:39.478Z,1774.5385
2023-04-15T05:56:40.492Z,1772.0000
2023-04-15T05:57:41.574Z,1772.6154
2023-04-15T05:58:42.617Z,1774.3077
2023-04-15T05:59:43.614Z,1781.6154
2023-04-15T06:00:44.678Z,1777.6154
2023-04-15T06:01:45.710Z,1777.5385
2023-04-15T06:02:46.961Z,1767.5385
2023-04-15T06:03:47.938Z,1762.9231
2023-04-15T06:04:48.846Z,1765.4615
2023-04-15T06:05:49.894Z,1763.9231
2023-04-15T06:06:50.918Z,1768.5385
2023-04-15T06:07:52.017Z,1766.6154
2023-04-15T06:08:53.112Z,1765.0769
2023-04-15T06:09:54.129Z,1757.1538
2023-04-15T06:10:55.198Z,1758.0769
2023-04-15T06:11:56.220Z,1759.7693
2023-04-15T06:12:57.192Z,1766.8462
2023-04-15T06:13:58.352Z,1750.1538
2023-04-15T06:15:00.235Z,1740.6154
2023-04-15T06:16:00.429Z,1692.5385
2023-04-15T06:17:01.436Z,1726.8462
2023-04-15T06:18:02.540Z,1756.6923
2023-04-15T06:19:03.510Z,1748.9231
2023-04-15T06:20:04.468Z,1758.9231
2023-04-15T06:21:05.509Z,1754.6923
2023-04-15T06:22:06.560Z,1749.6923
2023-04-15T06:23:07.554Z,1758.3846
2023-04-15T06:24:08.704Z,1784.6154
2023-04-15T06:25:09.626Z,1744.0769
2023-04-15T06:26:10.747Z,1807.3846
2023-04-15T06:27:11.723Z,1786.2307
2023-04-15T06:28:12.752Z,1783.9231
2023-04-15T06:29:13.850Z,1786.0769
2023-04-15T06:30:14.827Z,1781.7693
2023-04-15T06:31:15.863Z,1783.9231
2023-04-15T06:32:16.949Z,1781.0769
2023-04-15T06:33:17.989Z,1774.0000
2023-04-15T06:34:19.014Z,1785.7693
2023-04-15T06:35:20.054Z,1777.9231
2023-04-15T06:36:21.076Z,1783.7693
2023-04-15T06:37:22.131Z,1797.4615
2023-04-15T06:38:23.151Z,1747.3846
2023-04-15T06:39:24.267Z,1768.6154
2023-04-15T06:40:25.303Z,1795.6923
2023-04-15T06:41:26.269Z,1780.8462
2023-04-15T06:42:27.307Z,1784.0769
2023-04-15T06:43:28.333Z,1785.0000
2023-04-15T06:44:29.403Z,1784.0000
2023-04-15T06:45:30.511Z,1779.9231
2023-04-15T06:46:31.471Z,1765.7693
2023-04-15T06:47:32.516Z,1783.5385
2023-04-15T06:48:33.510Z,1776.2307
2023-04-15T06:49:34.628Z,1782.0769
2023-04-15T06:50:35.662Z,1791.0000
2023-04-15T06:51:36.664Z,1778.5385
2023-04-15T06:52:37.706Z,1785.3846
2023-04-15T06:53:38.715Z,1783.7693
2023-04-15T06:54:39.818Z,1779.1538
2023-04-15T06:55:40.830Z,1781.1538
2023-04-15T06:56:41.813Z,1755.9231
2023-04-15T06:57:42.875Z,1761.3846
2023-04-15T06:58:43.947Z,1813.9231
2023-04-15T06:59:44.902Z,1764.7693
2023-04-15T07:00:45.957Z,1809.3846
2023-04-15T07:01:46.956Z,1802.4615
2023-04-15T07:02:48.056Z,1796.7693
2023-04-15T07:03:49.128Z,1778.0769
2023-04-15T07:04:50.149Z,1785.6923
2023-04-15T07:05:51.135Z,1782.9231
2023-04-15T07:06:52.223Z,1782.0000
2023-04-15T07:07:53.253Z,1774.9231
2023-04-15T07:08:54.288Z,1780.8462
2023-04-15T07:09:55.343Z,1780.2307
2023-04-15T07:10:56.359Z,1760.5385
2023-04-15T07:11:57.397Z,1786.0000
2023-04-15T07:12:58.401Z,1775.6154
2023-04-15T07:13:59.475Z,1786.1538
2023-04-15T07:15:00.516Z,1759.6923
2023-04-15T07:16:01.650Z,1783.6923
2023-04-15T07:17:02.608Z,1775.5385
2023-04-15T07:18:03.621Z,1772.5385
2023-04-15T07:19:04.817Z,1778.0000
2023-04-15T07:20:05.684Z,1778.8462
2023-04-15T07:21:06.710Z,1780.3077
2023-04-15T07:22:07.777Z,1755.6923
2023-04-15T07:23:08.982Z,1770.6154
2023-04-15T07:24:09.799Z,1723.0769
2023-04-15T07:25:11.183Z,1796.0769
2023-04-15T07:26:11.933Z,1737.1538
2023-04-15T07:27:12.944Z,1798.5385
2023-04-15T07:28:13.973Z,1812.3077
2023-04-15T07:29:15.020Z,1793.3846
2023-04-15T07:30:16.062Z,1743.4615
2023-04-15T07:31:17.184Z,1791.5385
2023-04-15T07:32:18.128Z,1750.4615
2023-04-15T07:33:19.171Z,1803.7693
2023-04-15T07:34:20.399Z,1768.4615
2023-04-15T07:35:21.233Z,1744.5385
2023-04-15T07:36:22.323Z,1810.9231
2023-04-15T07:37:23.332Z,1776.7693
2023-04-15T07:38:24.375Z,1769.0000
2023-04-15T07:39:25.411Z,1663.1538
2023-04-15T07:40:26.493Z,1828.0000
2023-04-15T07:41:27.572Z,1804.2307
2023-04-15T07:42:28.537Z,1790.5385
2023-04-15T07:43:29.595Z,1800.5385
2023-04-15T07:44:30.619Z,1803.9231
2023-04-15T07:45:31.680Z,1810.6154
2023-04-15T07:46:32.774Z,1800.7693
2023-04-15T07:47:33.787Z,1777.0769
2023-04-15T07:48:35.610Z,1790.7693
2023-04-15T07:49:35.916Z,1757.9231
2023-04-15T07:50:36.991Z,1833.8462
2023-04-15T07:51:38.069Z,1804.3077
2023-04-15T07:52:39.057Z,1795.7693
2023-04-15T07:53:40.118Z,1780.1538
2023-04-15T07:54:41.138Z,1760.3077
2023-04-15T07:55:42.184Z,1853.8462
2023-04-15T07:56:43.280Z,1802.2307
2023-04-15T07:57:44.214Z,1773.1538
2023-04-15T07:58:45.260Z,1772.1538
2023-04-15T07:59:46.299Z,1780.6154
2023-04-15T08:00:47.392Z,1790.6154
2023-04-15T08:01:48.477Z,1749.6923
2023-04-15T08:02:49.553Z,1731.5385
2023-04-15T08:03:50.671Z,1825.3077
2023-04-15T08:04:51.704Z,1765.3077
2023-04-15T08:05:52.619Z,1783.7693
2023-04-15T08:06:53.636Z,1796.0769
2023-04-15T08:07:54.641Z,1757.0000
2023-04-15T08:08:55.747Z,1806.6154
2023-04-15T08:09:56.680Z,1759.4615
2023-04-15T08:10:57.766Z,1737.2307
2023-04-15T08:11:58.837Z,1813.6923
2023-04-15T08:12:59.899Z,1783.0769
2023-04-15T08:14:00.835Z,1775.3846
2023-04-15T08:15:01.924Z,1779.3846
2023-04-15T08:16:03.005Z,1739.5385
2023-04-15T08:17:04.038Z,1780.6923
2023-04-15T08:18:05.020Z,1801.7693
2023-04-15T08:19:06.046Z,1784.5385
2023-04-15T08:20:07.082Z,1751.0769
2023-04-15T08:21:08.159Z,1757.0769
2023-04-15T08:22:15.371Z,1815.7693
2023-04-15T08:23:10.166Z,1779.7693
2023-04-15T08:24:11.261Z,1750.0000
2023-04-15T08:25:12.246Z,1806.4615
2023-04-15T08:26:13.388Z,1799.6923
2023-04-15T08:27:14.433Z,1763.0000
2023-04-15T08:28:15.410Z,1789.2307
2023-04-15T08:29:16.437Z,1785.6923
2023-04-15T08:30:17.479Z,1784.5385
2023-04-15T08:31:18.557Z,1719.9231
2023-04-15T08:32:19.636Z,1829.4615
2023-04-15T08:33:20.593Z,1806.7693
2023-04-15T08:34:21.626Z,1740.6154
2023-04-15T08:35:22.806Z,1795.4615
2023-04-15T08:36:23.736Z,1797.1538
2023-04-15T08:37:24.668Z,1799.0769
2023-04-15T08:38:25.710Z,1783.2307
2023-04-15T08:39:26.732Z,1775.2307
2023-04-15T08:40:27.795Z,1787.1538
2023-04-15T08:41:28.814Z,1782.6923
2023-04-15T08:42:29.915Z,1776.2307
2023-04-15T08:43:30.892Z,1797.7693
2023-04-15T08:44:31.972Z,1796.7693
2023-04-15T08:45:32.998Z,1803.3077
2023-04-15T08:46:34.032Z,1784.9231
2023-04-15T08:47:35.073Z,1753.8462
2023-04-15T08:48:36.057Z,1733.2307
2023-04-15T08:49:37.100Z,1759.6923
2023-04-15T08:50:38.142Z,1790.3077
2023-04-15T08:51:39.187Z,1790.3846
2023-04-15T08:52:40.261Z,1787.3077
2023-04-15T08:53:41.266Z,1793.3077
2023-04-15T08:54:42.308Z,1816.3077
2023-04-15T08:55:43.309Z,1806.6923
2023-04-15T08:56:44.414Z,1799.7693
2023-04-15T08:57:45.450Z,1791.9231
2023-04-15T08:58:46.465Z,1794.9231
2023-04-15T08:59:47.528Z,1797.0000
2023-04-15T09:00:48.650Z,1799.6154
2023-04-15T09:01:49.628Z,1798.3077
2023-04-15T09:02:50.730Z,1774.6923
2023-04-15T09:03:51.777Z,1757.3846
2023-04-15T09:04:52.921Z,1652.8462
2023-04-15T09:05:53.762Z,1824.2307
2023-04-15T09:06:54.782Z,1825.6923
2023-04-15T09:07:55.935Z,1782.8462
2023-04-15T09:08:56.861Z,1791.0000
2023-04-15T09:09:57.923Z,1779.0769
2023-04-15T09:10:58.990Z,1743.3077
2023-04-15T09:11:59.998Z,1777.0769
2023-04-15T09:13:01.089Z,1801.6154
2023-04-15T09:14:02.080Z,1733.8462
2023-04-15T09:15:03.141Z,1779.1538
2023-04-15T09:16:04.232Z,1793.2307
2023-04-15T09:17:05.295Z,1736.4615
2023-04-15T09:18:06.264Z,1806.2307
2023-04-15T09:19:07.265Z,1764.1538
2023-04-15T09:20:08.300Z,1770.3846
2023-04-15T09:21:09.638Z,1813.0000
2023-04-15T09:22:10.357Z,1793.0000
2023-04-15T09:23:11.484Z,1799.9231
2023-04-15T09:24:12.433Z,1779.5385
2023-04-15T09:25:13.514Z,1780.1538
2023-04-15T09:26:14.510Z,1692.0000
2023-04-15T09:27:15.544Z,1816.3077
2023-04-15T09:28:16.619Z,1779.3846
2023-04-15T09:29:17.622Z,1806.0000
2023-04-15T09:30:18.685Z,1765.0000
2023-04-15T09:31:19.747Z,1779.2307
2023-04-15T09:32:20.712Z,1785.3077
2023-04-15T09:33:21.906Z,1787.0769
2023-04-15T09:34:22.956Z,1786.3077
2023-04-15T09:35:23.929Z,1779.3846
2023-04-15T09:36:24.986Z,1792.6154
2023-04-15T09:37:32.395Z,1791.9231
2023-04-15T09:38:27.117Z,1795.9231
2023-04-15T09:39:28.113Z,1791.5385
2023-04-15T09:40:29.152Z,1793.3077
2023-04-15T09:41:30.199Z,1785.7693
2023-04-15T09:42:31.238Z,1815.6923
2023-04-15T09:43:32.292Z,1793.7693
2023-04-15T09:44:33.314Z,1771.9231
2023-04-15T09:45:34.337Z,1776.6923
2023-04-15T09:46:35.433Z,1784.9231
2023-04-15T09:47:36.492Z,1789.4615
2023-04-15T09:48:37.602Z,1789.9231
2023-04-15T09:49:38.578Z,1774.3077
2023-04-15T09:50:39.562Z,1794.3846
2023-04-15T09:51:41.340Z,1811.6923
2023-04-15T09:52:41.634Z,1809.9231
2023-04-15T09:53:42.710Z,1781.3846
2023-04-15T09:54:43.695Z,1787.8462
2023-04-15T09:55:44.745Z,1805.1538
2023-04-15T09:56:45.806Z,1797.2307
2023-04-15T09:57:46.828Z,1799.4615
2023-04-15T09:58:47.912Z,1804.0000
2023-04-15T09:59:48.873Z,1804.8462
2023-04-15T10:00:49.973Z,1804.6154
2023-04-15T10:01:51.075Z,1801.8462
2023-04-15T10:02:52.056Z,1809.6154
2023-04-15T10:03:53.115Z,1814.0000
2023-04-15T10:04:54.110Z,1799.2307
2023-04-15T10:05:55.163Z,1795.0000
2023-04-15T10:06:56.158Z,1755.6923
2023-04-15T10:07:57.247Z,1825.4615
2023-04-15T10:08:58.253Z,1846.5385
2023-04-15T10:09:59.271Z,1768.6923
2023-04-15T10:11:00.277Z,1808.8462
2023-04-15T10:12:01.324Z,1787.5385
2023-04-15T10:13:02.356Z,1807.3077
2023-04-15T10:14:03.745Z,1792.4615
2023-04-15T10:15:04.423Z,1798.1538
2023-04-15T10:16:05.483Z,1795.6154
2023-04-15T10:17:06.478Z,1800.4615
2023-04-15T10:18:07.766Z,1803.1538
2023-04-15T10:19:08.523Z,1798.2307
2023-04-15T10:20:09.516Z,1814.8462
2023-04-15T10:21:10.543Z,1795.9231
2023-04-15T10:22:11.616Z,1807.3846
2023-04-15T10:23:13.462Z,1800.8462
2023-04-15T10:24:13.696Z,1798.0000
2023-04-15T10:25:14.702Z,1801.3077
2023-04-15T10:26:15.734Z,1792.6154
2023-04-15T10:27:16.788Z,1799.8462
2023-04-15T10:28:17.810Z,1802.2307
2023-04-15T10:29:18.882Z,1798.0000
2023-04-15T10:30:19.899Z,1794.5385
2023-04-15T10:31:20.971Z,1793.0000
2023-04-15T10:32:21.991Z,1796.0000
2023-04-15T10:33:23.006Z,1798.4615
2023-04-15T10:34:24.061Z,1790.6154
2023-04-15T10:35:25.095Z,1789.5385
2023-04-15T10:36:26.108Z,1814.5385
2023-04-15T10:37:27.188Z,1804.6923
2023-04-15T10:38:28.206Z,1796.3077
2023-04-15T10:39:29.279Z,1805.1538
2023-04-15T10:40:30.302Z,1795.0769
2023-04-15T10:41:31.387Z,1802.3077
2023-04-15T10:42:32.385Z,1792.5385
2023-04-15T10:43:33.379Z,1789.8462
2023-04-15T10:44:34.471Z,1807.0769
2023-04-15T10:45:35.505Z,1817.0769
2023-04-15T10:46:36.564Z,1806.3077
2023-04-15T10:47:37.597Z,1775.0769
2023-04-15T10:48:38.610Z,1835.8462
2023-04-15T10:49:39.626Z,1755.6923
2023-04-15T10:50:40.732Z,1763.0000
2023-04-15T10:51:41.756Z,1834.2307
2023-04-15T10:52:42.738Z,1832.8462
2023-04-15T10:53:43.801Z,1814.1538
2023-04-15T10:54:44.806Z,1792.8462
2023-04-15T10:55:45.867Z,1812.2307
2023-04-15T10:56:46.899Z,1817.4615
2023-04-15T10:57:47.934Z,1807.1538
2023-04-15T10:58:48.998Z,1780.6923
2023-04-15T10:59:50.029Z,1792.6923
2023-04-15T11:00:51.068Z,1839.3846
2023-04-15T11:01:52.194Z,1789.4615
2023-04-15T11:02:53.161Z,1842.7693
2023-04-15T11:03:54.325Z,1825.1538
2023-04-15T11:04:55.560Z,1794.4615
2023-04-15T11:05:56.316Z,1806.9231
2023-04-15T11:06:57.303Z,1794.0769
2023-04-15T11:07:58.364Z,1838.4615
2023-04-15T11:08:59.463Z,1763.6923
2023-04-15T11:10:00.434Z,1832.6154
2023-04-15T11:11:01.512Z,1820.1538
2023-04-15T11:12:02.503Z,1810.4615
2023-04-15T11:13:03.552Z,1820.0769
2023-04-15T11:14:04.733Z,1833.4615
2023-04-15T11:15:05.605Z,1761.4615
2023-04-15T11:16:06.748Z,1826.3077
2023-04-15T11:17:07.760Z,1813.0769
2023-04-15T11:18:08.907Z,1807.8462
2023-04-15T11:19:09.883Z,1820.4615
2023-04-15T11:20:10.913Z,1822.1538
2023-04-15T11:21:12.035Z,1815.6154
2023-04-15T11:22:12.949Z,1785.0000
2023-04-15T11:23:15.015Z,1844.3077
2023-04-15T11:24:15.104Z,1825.6154
2023-04-15T11:25:16.075Z,1823.3077
2023-04-15T11:26:17.187Z,1793.3846
2023-04-15T11:27:18.183Z,1809.1538
2023-04-15T11:28:19.181Z,1793.1538
2023-04-15T11:29:20.239Z,1736.4615
2023-04-15T11:30:21.302Z,1786.6154
2023-04-15T11:31:22.461Z,1807.0769
2023-04-15T11:32:23.415Z,1826.8462
2023-04-15T11:33:24.447Z,1792.1538
2023-04-15T11:34:25.449Z,1845.6154
2023-04-15T11:35:26.533Z,1773.1538
2023-04-15T11:36:27.614Z,1772.0769